createdAt,value
2022-11-24T00:00:34.203Z,55.93
2022-11-24T00:05:38.488Z,58.99
2022-11-24T00:10:40.045Z,56.64
2022-11-24T00:15:41.575Z,56.36
2022-11-24T00:20:43.129Z,58.70
2022-11-24T00:25:44.668Z,57.66
2022-11-24T00:30:46.380Z,59.80
2022-11-24T00:35:57.520Z,57.21
2022-11-24T00:40:59.075Z,58.33
2022-11-24T00:46:00.942Z,57.77
2022-11-24T00:51:05.804Z,59.66
2022-11-24T00:56:08.778Z,58.69
2022-11-24T01:01:17.631Z,56.43
2022-11-24T01:06:21.356Z,56.61
2022-11-24T01:11:25.792Z,55.25
2022-11-24T01:16:34.346Z,56.14
2022-11-24T01:21:36.011Z,54.41
2022-11-24T01:26:37.888Z,55.78
2022-11-24T01:31:39.581Z,54.63
2022-11-24T01:36:41.260Z,54.92
2022-11-24T01:41:42.885Z,54.14
2022-11-24T01:46:47.992Z,55.35
2022-11-24T01:51:58.874Z,55.24
2022-11-24T01:57:11.272Z,54.76
2022-11-24T02:02:14.168Z,54.32
2022-11-24T02:07:15.976Z,55.20
2022-11-24T02:12:17.672Z,54.32
2022-11-24T02:17:19.233Z,53.47
2022-11-24T02:22:37.159Z,54.81
2022-11-24T02:27:38.732Z,53.96
2022-11-24T02:32:42.131Z,55.22
2022-11-24T02:37:43.770Z,56.07
2022-11-24T02:42:47.107Z,54.38
2022-11-24T02:47:48.768Z,54.57
2022-11-24T02:52:50.405Z,52.58
2022-11-24T02:57:51.957Z,52.42
2022-11-24T03:02:53.581Z,54.62
2022-11-24T03:07:55.317Z,55.62
2022-11-24T03:12:56.898Z,54.75
2022-11-24T03:17:58.529Z,57.47
2022-11-24T03:23:00.086Z,55.73
2022-11-24T03:28:01.771Z,56.49
2022-11-24T03:33:05.059Z,57.66
2022-11-24T03:38:06.648Z,55.50
2022-11-24T03:43:08.265Z,57.28
2022-11-24T03:48:09.927Z,56.71
2022-11-24T03:53:11.499Z,55.61
2022-11-24T03:58:13.055Z,54.07
2022-11-24T04:03:14.752Z,55.40
2022-11-24T04:08:16.854Z,55.04
2022-11-24T04:13:21.292Z,56.66
2022-11-24T04:18:22.887Z,57.06
2022-11-24T04:23:24.656Z,55.68
2022-11-24T04:28:27.311Z,54.68
2022-11-24T04:33:28.910Z,55.40
2022-11-24T04:39:23.203Z,57.05
2022-11-24T04:43:52.073Z,57.62
2022-11-24T04:48:53.630Z,55.04
2022-11-24T04:53:55.203Z,57.62
2022-11-24T04:58:56.915Z,56.66
2022-11-24T05:05:11.638Z,59.94
2022-11-24T05:10:31.778Z,60.27
2022-11-24T05:15:33.715Z,60.76
2022-11-24T05:20:36.582Z,59.41
2022-11-24T05:25:40.543Z,59.60
2022-11-24T05:30:45.786Z,59.83
2022-11-24T05:35:49.101Z,59.21
2022-11-24T05:40:50.738Z,57.53
2022-11-24T05:45:52.322Z,57.00
2022-11-24T05:50:58.912Z,56.50
2022-11-24T05:56:03.835Z,57.76
2022-11-24T06:01:07.034Z,58.14
2022-11-24T06:06:08.682Z,58.60
2022-11-24T06:11:19.537Z,57.64
2022-11-24T06:16:21.274Z,59.52
2022-11-24T06:21:22.887Z,61.11
2022-11-24T06:26:24.574Z,61.44
2022-11-24T06:31:26.296Z,60.95
2022-11-24T06:36:28.116Z,60.50
2022-11-24T06:41:29.930Z,64.42
2022-11-24T06:46:31.751Z,62.42
2022-11-24T06:51:33.408Z,59.59
2022-11-24T06:56:35.387Z,58.83
2022-11-24T07:01:37.024Z,60.30
2022-11-24T07:06:41.299Z,60.27
2022-11-24T07:11:43.122Z,60.39
2022-11-24T07:16:44.718Z,60.94
2022-11-24T07:21:46.310Z,58.42
2022-11-24T07:26:47.948Z,59.21
2022-11-24T07:31:50.092Z,57.19
2022-11-24T07:36:51.866Z,58.28
2022-11-24T07:41:53.475Z,60.68
2022-11-24T07:46:55.198Z,58.94
2022-11-24T07:51:56.832Z,57.39
2022-11-24T07:56:58.470Z,56.34
2022-11-24T08:02:00.109Z,57.81
2022-11-24T08:07:02.674Z,56.37
2022-11-24T08:12:04.436Z,57.28
2022-11-24T08:17:06.072Z,57.61
2022-11-24T08:22:07.680Z,56.52
2022-11-24T08:27:09.235Z,57.85
2022-11-24T08:32:14.139Z,56.24
2022-11-24T08:37:19.166Z,58.58
2022-11-24T08:42:20.806Z,55.80
2022-11-24T08:47:22.859Z,55.39
2022-11-24T08:52:24.459Z,54.02
2022-11-24T08:57:26.160Z,54.86
2022-11-24T09:02:27.734Z,54.48
2022-11-24T09:07:29.428Z,54.01
2022-11-24T09:12:31.093Z,52.76
2022-11-24T09:17:32.922Z,54.20
2022-11-24T09:22:35.618Z,54.40
2022-11-24T09:27:37.328Z,52.83
2022-11-24T09:32:38.878Z,56.12
2022-11-24T09:37:40.444Z,58.45
2022-11-24T09:43:03.742Z,57.41
2022-11-24T09:48:22.717Z,58.14
2022-11-24T09:53:27.007Z,58.81
2022-11-24T09:58:35.864Z,56.32
2022-11-24T10:03:43.404Z,56.48
2022-11-24T10:09:03.299Z,54.22
2022-11-24T10:14:23.215Z,58.32
2022-11-24T10:19:50.882Z,57.58
2022-11-24T10:25:01.362Z,58.33
2022-11-24T10:30:12.091Z,55.24
2022-11-24T10:35:22.499Z,53.29
2022-11-24T10:40:56.556Z,55.43
2022-11-24T10:46:27.310Z,53.97
2022-11-24T10:51:35.024Z,55.95
2022-11-24T10:56:41.396Z,53.25
2022-11-24T11:06:14.702Z,59.93
2022-11-24T11:11:28.439Z,59.04
2022-11-24T11:16:41.267Z,60.80
2022-11-24T11:21:43.001Z,58.80
2022-11-24T11:26:44.948Z,56.85
2022-11-24T11:37:30.999Z,56.71
2022-11-24T11:43:01.457Z,56.51
2022-11-24T11:48:03.478Z,55.99
2022-11-24T11:53:17.252Z,56.04
2022-11-24T11:59:02.219Z,55.06
2022-11-24T12:04:33.662Z,54.70
2022-11-24T12:09:41.650Z,55.49
2022-11-24T12:15:05.880Z,53.46
2022-11-24T12:20:36.010Z,52.62
2022-11-24T12:25:55.786Z,51.99
2022-11-24T12:30:57.580Z,50.56
2022-11-24T12:36:28.132Z,51.36
2022-11-24T12:41:48.019Z,51.06
2022-11-24T12:46:58.470Z,51.29
2022-11-24T12:52:05.453Z,50.35
2022-11-24T12:57:25.283Z,49.94
2022-11-24T13:03:14.985Z,50.84
2022-11-24T13:08:16.709Z,49.55
2022-11-24T13:13:18.454Z,49.34
2022-11-24T13:18:42.175Z,48.96
2022-11-24T13:23:55.255Z,50.09
2022-11-24T13:29:05.825Z,50.69
2022-11-24T13:34:55.067Z,49.53
2022-11-24T13:40:01.111Z,50.03
2022-11-24T13:45:05.882Z,49.07
2022-11-24T13:50:23.841Z,48.54
2022-11-24T13:55:32.694Z,47.97
2022-11-24T14:00:58.125Z,48.66
2022-11-24T14:06:02.275Z,48.06
2022-11-24T14:11:13.354Z,47.51
2022-11-24T14:16:18.248Z,47.78
2022-11-24T14:21:30.316Z,47.13
2022-11-24T14:26:35.587Z,47.78
2022-11-24T14:31:37.281Z,47.80
2022-11-24T14:36:39.849Z,48.31
2022-11-24T14:41:44.009Z,47.72
2022-11-24T14:46:46.061Z,48.20
2022-11-24T14:51:55.497Z,48.68
2022-11-24T14:57:05.456Z,47.05
2022-11-24T15:02:44.744Z,47.14
2022-11-24T15:07:48.203Z,46.58
2022-11-24T15:12:54.623Z,45.42
2022-11-24T15:18:01.110Z,45.76
2022-11-24T15:23:25.706Z,45.94
2022-11-24T15:28:27.486Z,46.81
2022-11-24T15:33:29.769Z,48.34
2022-11-24T15:38:31.590Z,47.97
2022-11-24T15:43:41.050Z,48.40
2022-11-24T15:48:42.758Z,48.61
2022-11-24T15:53:51.163Z,47.27
2022-11-24T15:58:54.344Z,48.12
2022-11-24T16:03:56.021Z,49.40
2022-11-24T16:08:58.383Z,46.84
2022-11-24T16:14:00.080Z,46.83
2022-11-24T16:19:01.831Z,49.07
2022-11-24T16:24:03.631Z,45.83
2022-11-24T16:29:05.306Z,43.66
2022-11-24T16:34:08.024Z,43.60
2022-11-24T16:39:09.637Z,45.63
2022-11-24T16:44:11.288Z,44.23
2022-11-24T16:49:12.983Z,46.27
2022-11-24T16:54:14.561Z,44.15
2022-11-24T16:59:16.208Z,46.00
2022-11-24T17:04:17.996Z,46.89
2022-11-24T17:09:19.675Z,48.31
2022-11-24T17:14:21.360Z,47.44
2022-11-24T17:19:23.098Z,46.78
2022-11-24T17:24:24.804Z,44.87
2022-11-24T17:29:26.512Z,45.09
2022-11-24T17:34:28.305Z,45.41
2022-11-24T17:39:30.003Z,46.14
2022-11-24T17:44:32.011Z,45.36
2022-11-24T17:49:34.060Z,45.87
2022-11-24T17:54:51.002Z,46.25
2022-11-24T17:59:53.236Z,47.11
2022-11-24T18:04:55.987Z,45.84
2022-11-24T18:09:57.792Z,47.16
2022-11-24T18:14:59.884Z,44.51
2022-11-24T18:20:01.575Z,45.28
2022-11-24T18:25:03.415Z,48.15
2022-11-24T18:30:06.114Z,49.08
2022-11-24T18:35:08.230Z,49.22
2022-11-24T18:40:10.251Z,49.75
2022-11-24T18:45:11.929Z,47.00
2022-11-24T18:50:13.622Z,48.34
2022-11-24T18:55:15.629Z,49.31
2022-11-24T19:00:17.968Z,47.46
2022-11-24T19:05:20.303Z,45.56
2022-11-24T19:10:22.004Z,46.20
2022-11-24T19:15:23.742Z,46.12
2022-11-24T19:20:25.362Z,46.85
2022-11-24T19:25:27.127Z,47.76
2022-11-24T19:30:29.317Z,49.15
2022-11-24T19:35:30.907Z,47.30
2022-11-24T19:40:32.466Z,49.52
2022-11-24T19:45:34.075Z,50.28
2022-11-24T19:50:35.699Z,47.29
2022-11-24T19:55:37.412Z,50.27
2022-11-24T20:00:39.054Z,51.85
2022-11-24T20:05:40.615Z,51.04
2022-11-24T20:10:42.516Z,49.09
2022-11-24T20:15:44.238Z,50.45
2022-11-24T20:20:45.854Z,49.91
2022-11-24T20:25:47.415Z,51.49
2022-11-24T20:30:50.206Z,50.62
2022-11-24T20:35:51.798Z,50.80
2022-11-24T20:40:53.358Z,49.23
2022-11-24T20:46:02.655Z,51.27
2022-11-24T20:51:07.339Z,51.60
2022-11-24T20:56:15.292Z,50.80
2022-11-24T21:01:25.819Z,50.57
2022-11-24T21:06:28.367Z,51.81
2022-11-24T21:11:30.655Z,51.60
2022-11-24T21:16:40.721Z,51.58
2022-11-24T21:21:42.821Z,51.84
2022-11-24T21:26:51.224Z,50.53
2022-11-24T21:31:53.050Z,50.14
2022-11-24T21:36:54.702Z,50.60
2022-11-24T21:41:56.408Z,49.55
2022-11-24T21:46:58.066Z,47.97
2022-11-24T21:51:59.716Z,52.08
2022-11-24T21:57:01.328Z,51.03
2022-11-24T22:02:02.958Z,46.98
2022-11-24T22:07:04.506Z,50.65
2022-11-24T22:12:06.321Z,49.36
2022-11-24T22:17:08.505Z,47.44
2022-11-24T22:22:10.185Z,46.70
2022-11-24T22:27:11.874Z,49.49
2022-11-24T22:32:13.506Z,49.94
2022-11-24T22:37:15.121Z,47.92
2022-11-24T22:42:16.771Z,49.03
2022-11-24T22:47:18.498Z,51.50
2022-11-24T22:52:20.149Z,49.77
2022-11-24T22:57:21.811Z,50.31
2022-11-24T23:02:23.394Z,48.30
2022-11-24T23:07:25.055Z,48.28
2022-11-24T23:12:26.760Z,47.50
2022-11-24T23:17:28.379Z,47.23
2022-11-24T23:22:30.022Z,47.42
2022-11-24T23:27:31.683Z,48.39
2022-11-24T23:32:33.288Z,49.16
2022-11-24T23:37:59.944Z,50.76
2022-11-24T23:42:57.341Z,50.62
2022-11-24T23:47:59.103Z,50.27
2022-11-24T23:53:00.775Z,50.49
2022-11-24T23:58:02.442Z,49.53
